sensor_id;sensor_type;location;lat;lon;timestamp;P1;durP1;ratioP1;P2;durP2;ratioP2
66478;SDS011;53294;47.912;13.526;2023-05-08T00:00:03;9.45;;;7.20;;
66478;SDS011;53294;47.912;13.526;2023-05-08T00:02:31;10.73;;;7.82;;
66478;SDS011;53294;47.912;13.526;2023-05-08T00:04:58;9.88;;;6.95;;
66478;SDS011;53294;47.912;13.526;2023-05-08T00:07:24;17.55;;;7.47;;
66478;SDS011;53294;47.912;13.526;2023-05-08T00:09:51;9.38;;;6.80;;
66478;SDS011;53294;47.912;13.526;2023-05-08T00:12:18;10.20;;;7.88;;
66478;SDS011;53294;47.912;13.526;2023-05-08T00:14:44;8.73;;;7.15;;
66478;SDS011;53294;47.912;13.526;2023-05-08T00:17:11;8.55;;;6.88;;
66478;SDS011;53294;47.912;13.526;2023-05-08T00:19:38;9.98;;;7.30;;
66478;SDS011;53294;47.912;13.526;2023-05-08T00:22:05;11.35;;;7.70;;
66478;SDS011;53294;47.912;13.526;2023-05-08T00:24:32;8.32;;;6.63;;
66478;SDS011;53294;47.912;13.526;2023-05-08T00:26:58;9.77;;;6.85;;
66478;SDS011;53294;47.912;13.526;2023-05-08T00:29:25;9.18;;;7.13;;
66478;SDS011;53294;47.912;13.526;2023-05-08T00:31:52;9.00;;;7.03;;
66478;SDS011;53294;47.912;13.526;2023-05-08T00:34:18;10.32;;;8.00;;
66478;SDS011;53294;47.912;13.526;2023-05-08T00:36:45;10.00;;;7.22;;
66478;SDS011;53294;47.912;13.526;2023-05-08T00:39:12;11.38;;;8.50;;
66478;SDS011;53294;47.912;13.526;2023-05-08T00:41:38;9.95;;;7.43;;
66478;SDS011;53294;47.912;13.526;2023-05-08T00:44:05;9.90;;;7.75;;
66478;SDS011;53294;47.912;13.526;2023-05-08T00:46:32;11.25;;;8.82;;
66478;SDS011;53294;47.912;13.526;2023-05-08T00:48:58;9.32;;;7.28;;
66478;SDS011;53294;47.912;13.526;2023-05-08T00:51:25;12.40;;;8.57;;
66478;SDS011;53294;47.912;13.526;2023-05-08T00:53:53;9.60;;;7.40;;
66478;SDS011;53294;47.912;13.526;2023-05-08T00:56:19;10.40;;;7.80;;
66478;SDS011;53294;47.912;13.526;2023-05-08T00:58:48;10.93;;;7.22;;
66478;SDS011;53294;47.912;13.526;2023-05-08T01:01:16;10.07;;;7.20;;
66478;SDS011;53294;47.912;13.526;2023-05-08T01:03:43;11.52;;;8.57;;
66478;SDS011;53294;47.912;13.526;2023-05-08T01:06:10;11.05;;;8.35;;
66478;SDS011;53294;47.912;13.526;2023-05-08T01:08:37;8.70;;;7.00;;
66478;SDS011;53294;47.912;13.526;2023-05-08T01:11:19;9.50;;;7.05;;
66478;SDS011;53294;47.912;13.526;2023-05-08T01:14:05;11.48;;;8.70;;
66478;SDS011;53294;47.912;13.526;2023-05-08T01:16:41;10.07;;;7.95;;
66478;SDS011;53294;47.912;13.526;2023-05-08T01:33:36;12.35;;;9.23;;
66478;SDS011;53294;47.912;13.526;2023-05-08T01:36:27;11.73;;;7.90;;
66478;SDS011;53294;47.912;13.526;2023-05-08T01:39:13;12.18;;;7.93;;
66478;SDS011;53294;47.912;13.526;2023-05-08T01:41:45;9.48;;;6.72;;
66478;SDS011;53294;47.912;13.526;2023-05-08T01:44:20;10.98;;;8.10;;
66478;SDS011;53294;47.912;13.526;2023-05-08T01:46:51;12.45;;;9.27;;
66478;SDS011;53294;47.912;13.526;2023-05-08T01:49:25;13.07;;;9.55;;
66478;SDS011;53294;47.912;13.526;2023-05-08T01:51:56;15.75;;;10.73;;
66478;SDS011;53294;47.912;13.526;2023-05-08T01:54:29;13.80;;;10.10;;
66478;SDS011;53294;47.912;13.526;2023-05-08T01:57:01;14.10;;;10.15;;
66478;SDS011;53294;47.912;13.526;2023-05-08T01:59:29;15.35;;;11.50;;
66478;SDS011;53294;47.912;13.526;2023-05-08T02:02:00;15.30;;;10.73;;
66478;SDS011;53294;47.912;13.526;2023-05-08T02:04:28;13.73;;;10.27;;
66478;SDS011;53294;47.912;13.526;2023-05-08T02:06:56;17.45;;;11.50;;
66478;SDS011;53294;47.912;13.526;2023-05-08T02:09:24;12.40;;;8.32;;
66478;SDS011;53294;47.912;13.526;2023-05-08T02:11:53;17.17;;;11.90;;
66478;SDS011;53294;47.912;13.526;2023-05-08T02:14:20;16.75;;;12.02;;
66478;SDS011;53294;47.912;13.526;2023-05-08T02:16:49;16.48;;;10.73;;
66478;SDS011;53294;47.912;13.526;2023-05-08T02:19:17;17.27;;;12.98;;
66478;SDS011;53294;47.912;13.526;2023-05-08T02:21:47;17.33;;;12.18;;
66478;SDS011;53294;47.912;13.526;2023-05-08T02:24:16;17.27;;;13.15;;
66478;SDS011;53294;47.912;13.526;2023-05-08T02:26:43;16.42;;;11.23;;
66478;SDS011;53294;47.912;13.526;2023-05-08T02:29:11;18.88;;;13.40;;
66478;SDS011;53294;47.912;13.526;2023-05-08T02:31:39;15.23;;;11.43;;
66478;SDS011;53294;47.912;13.526;2023-05-08T02:34:07;15.43;;;11.35;;
66478;SDS011;53294;47.912;13.526;2023-05-08T02:36:34;16.85;;;11.88;;
66478;SDS011;53294;47.912;13.526;2023-05-08T02:39:04;15.00;;;10.82;;
66478;SDS011;53294;47.912;13.526;2023-05-08T02:41:33;18.38;;;13.02;;
66478;SDS011;53294;47.912;13.526;2023-05-08T02:44:00;21.25;;;12.63;;
66478;SDS011;53294;47.912;13.526;2023-05-08T02:47:33;19.77;;;13.20;;
66478;SDS011;53294;47.912;13.526;2023-05-08T02:49:43;20.80;;;14.48;;
66478;SDS011;53294;47.912;13.526;2023-05-08T02:52:18;21.38;;;14.57;;
66478;SDS011;53294;47.912;13.526;2023-05-08T02:54:53;20.45;;;13.63;;
66478;SDS011;53294;47.912;13.526;2023-05-08T02:57:46;17.88;;;13.45;;
66478;SDS011;53294;47.912;13.526;2023-05-08T03:00:13;21.65;;;15.52;;
66478;SDS011;53294;47.912;13.526;2023-05-08T03:05:23;18.35;;;13.90;;
66478;SDS011;53294;47.912;13.526;2023-05-08T03:07:56;21.75;;;15.23;;
66478;SDS011;53294;47.912;13.526;2023-05-08T03:10:27;18.00;;;13.52;;
66478;SDS011;53294;47.912;13.526;2023-05-08T03:12:59;22.38;;;14.13;;
66478;SDS011;53294;47.912;13.526;2023-05-08T03:15:33;18.30;;;12.35;;
66478;SDS011;53294;47.912;13.526;2023-05-08T03:18:06;23.52;;;15.35;;
66478;SDS011;53294;47.912;13.526;2023-05-08T03:20:37;19.70;;;14.35;;
66478;SDS011;53294;47.912;13.526;2023-05-08T03:23:08;20.60;;;13.73;;
66478;SDS011;53294;47.912;13.526;2023-05-08T03:25:41;19.85;;;14.25;;
66478;SDS011;53294;47.912;13.526;2023-05-08T03:28:09;23.40;;;15.15;;
66478;SDS011;53294;47.912;13.526;2023-05-08T03:30:38;19.63;;;13.40;;
66478;SDS011;53294;47.912;13.526;2023-05-08T03:33:06;19.63;;;14.98;;
66478;SDS011;53294;47.912;13.526;2023-05-08T03:35:35;22.27;;;15.02;;
66478;SDS011;53294;47.912;13.526;2023-05-08T03:38:05;21.15;;;15.30;;
66478;SDS011;53294;47.912;13.526;2023-05-08T03:40:33;20.85;;;14.07;;
66478;SDS011;53294;47.912;13.526;2023-05-08T03:43:02;21.73;;;14.35;;
66478;SDS011;53294;47.912;13.526;2023-05-08T03:45:35;19.30;;;13.88;;
66478;SDS011;53294;47.912;13.526;2023-05-08T03:48:03;21.05;;;15.60;;
66478;SDS011;53294;47.912;13.526;2023-05-08T03:50:33;20.95;;;14.93;;
66478;SDS011;53294;47.912;13.526;2023-05-08T03:53:01;23.17;;;15.18;;
66478;SDS011;53294;47.912;13.526;2023-05-08T03:55:29;17.15;;;13.40;;
66478;SDS011;53294;47.912;13.526;2023-05-08T04:00:50;19.90;;;13.32;;
66478;SDS011;53294;47.912;13.526;2023-05-08T04:06:02;20.27;;;13.88;;
66478;SDS011;53294;47.912;13.526;2023-05-08T04:08:51;21.70;;;15.20;;
66478;SDS011;53294;47.912;13.526;2023-05-08T04:14:03;19.00;;;12.85;;
66478;SDS011;53294;47.912;13.526;2023-05-08T04:16:37;19.88;;;14.23;;
66478;SDS011;53294;47.912;13.526;2023-05-08T04:19:09;22.95;;;16.77;;
66478;SDS011;53294;47.912;13.526;2023-05-08T04:21:41;19.83;;;14.27;;
66478;SDS011;53294;47.912;13.526;2023-05-08T04:24:09;22.85;;;15.25;;
66478;SDS011;53294;47.912;13.526;2023-05-08T04:26:40;24.88;;;16.50;;
66478;SDS011;53294;47.912;13.526;2023-05-08T04:29:08;19.48;;;13.48;;
66478;SDS011;53294;47.912;13.526;2023-05-08T04:31:34;23.98;;;15.70;;
66478;SDS011;53294;47.912;13.526;2023-05-08T04:34:02;24.95;;;16.17;;
66478;SDS011;53294;47.912;13.526;2023-05-08T04:36:30;24.90;;;17.48;;
66478;SDS011;53294;47.912;13.526;2023-05-08T04:38:59;22.40;;;16.25;;
66478;SDS011;53294;47.912;13.526;2023-05-08T04:41:25;23.90;;;16.77;;
66478;SDS011;53294;47.912;13.526;2023-05-08T04:43:52;25.58;;;17.58;;
66478;SDS011;53294;47.912;13.526;2023-05-08T04:46:19;23.77;;;16.00;;
66478;SDS011;53294;47.912;13.526;2023-05-08T04:48:46;22.73;;;15.38;;
66478;SDS011;53294;47.912;13.526;2023-05-08T04:51:13;23.85;;;16.73;;
66478;SDS011;53294;47.912;13.526;2023-05-08T04:53:39;21.50;;;14.13;;
66478;SDS011;53294;47.912;13.526;2023-05-08T04:56:06;20.25;;;14.25;;
66478;SDS011;53294;47.912;13.526;2023-05-08T04:58:33;23.77;;;15.65;;
66478;SDS011;53294;47.912;13.526;2023-05-08T05:01:03;21.90;;;15.32;;
66478;SDS011;53294;47.912;13.526;2023-05-08T05:03:30;27.35;;;17.15;;
66478;SDS011;53294;47.912;13.526;2023-05-08T05:05:57;21.25;;;15.40;;
66478;SDS011;53294;47.912;13.526;2023-05-08T05:08:24;23.42;;;15.73;;
66478;SDS011;53294;47.912;13.526;2023-05-08T05:10:52;23.27;;;16.23;;
66478;SDS011;53294;47.912;13.526;2023-05-08T05:13:18;22.70;;;16.10;;
66478;SDS011;53294;47.912;13.526;2023-05-08T05:15:45;21.75;;;15.13;;
66478;SDS011;53294;47.912;13.526;2023-05-08T05:18:12;23.77;;;16.30;;
66478;SDS011;53294;47.912;13.526;2023-05-08T05:20:39;30.10;;;18.15;;
66478;SDS011;53294;47.912;13.526;2023-05-08T05:23:05;26.35;;;16.85;;
66478;SDS011;53294;47.912;13.526;2023-05-08T05:25:33;23.17;;;16.15;;
66478;SDS011;53294;47.912;13.526;2023-05-08T05:28:00;24.40;;;17.60;;
66478;SDS011;53294;47.912;13.526;2023-05-08T05:30:27;23.10;;;16.42;;
66478;SDS011;53294;47.912;13.526;2023-05-08T05:32:53;26.02;;;17.17;;
66478;SDS011;53294;47.912;13.526;2023-05-08T05:35:20;27.85;;;18.25;;
66478;SDS011;53294;47.912;13.526;2023-05-08T05:37:50;25.55;;;17.40;;
66478;SDS011;53294;47.912;13.526;2023-05-08T05:40:17;24.10;;;16.02;;
66478;SDS011;53294;47.912;13.526;2023-05-08T05:42:47;24.55;;;16.58;;
66478;SDS011;53294;47.912;13.526;2023-05-08T05:45:15;25.38;;;17.55;;
66478;SDS011;53294;47.912;13.526;2023-05-08T05:47:43;26.27;;;17.15;;
66478;SDS011;53294;47.912;13.526;2023-05-08T05:50:19;28.70;;;18.05;;
66478;SDS011;53294;47.912;13.526;2023-05-08T05:52:47;25.30;;;16.23;;
66478;SDS011;53294;47.912;13.526;2023-05-08T05:55:14;26.10;;;17.50;;
66478;SDS011;53294;47.912;13.526;2023-05-08T05:57:41;26.80;;;18.55;;
66478;SDS011;53294;47.912;13.526;2023-05-08T06:00:08;27.38;;;17.95;;
66478;SDS011;53294;47.912;13.526;2023-05-08T06:02:36;26.77;;;18.55;;
66478;SDS011;53294;47.912;13.526;2023-05-08T06:05:03;24.38;;;17.33;;
66478;SDS011;53294;47.912;13.526;2023-05-08T06:07:30;26.30;;;17.75;;
66478;SDS011;53294;47.912;13.526;2023-05-08T06:09:57;21.25;;;15.07;;
66478;SDS011;53294;47.912;13.526;2023-05-08T06:12:23;26.25;;;16.45;;
66478;SDS011;53294;47.912;13.526;2023-05-08T06:14:51;25.95;;;17.60;;
66478;SDS011;53294;47.912;13.526;2023-05-08T06:17:18;22.88;;;15.25;;
66478;SDS011;53294;47.912;13.526;2023-05-08T06:19:44;22.50;;;14.88;;
66478;SDS011;53294;47.912;13.526;2023-05-08T06:22:19;25.17;;;17.05;;
66478;SDS011;53294;47.912;13.526;2023-05-08T06:24:49;26.15;;;17.10;;
66478;SDS011;53294;47.912;13.526;2023-05-08T06:27:20;26.83;;;17.65;;
66478;SDS011;53294;47.912;13.526;2023-05-08T06:29:50;24.75;;;17.67;;
66478;SDS011;53294;47.912;13.526;2023-05-08T06:32:18;24.75;;;16.40;;
66478;SDS011;53294;47.912;13.526;2023-05-08T06:34:46;25.48;;;16.77;;
66478;SDS011;53294;47.912;13.526;2023-05-08T06:37:13;24.35;;;17.52;;
66478;SDS011;53294;47.912;13.526;2023-05-08T06:39:40;26.92;;;17.45;;
66478;SDS011;53294;47.912;13.526;2023-05-08T06:42:06;29.13;;;18.52;;
66478;SDS011;53294;47.912;13.526;2023-05-08T06:44:34;26.48;;;17.92;;
66478;SDS011;53294;47.912;13.526;2023-05-08T06:47:01;25.58;;;16.85;;
66478;SDS011;53294;47.912;13.526;2023-05-08T06:49:27;25.00;;;16.83;;
66478;SDS011;53294;47.912;13.526;2023-05-08T06:51:54;23.10;;;16.25;;
66478;SDS011;53294;47.912;13.526;2023-05-08T06:54:23;26.80;;;17.17;;
66478;SDS011;53294;47.912;13.526;2023-05-08T06:56:51;30.75;;;19.42;;
66478;SDS011;53294;47.912;13.526;2023-05-08T06:59:19;27.20;;;17.45;;
66478;SDS011;53294;47.912;13.526;2023-05-08T07:01:46;23.58;;;17.10;;
66478;SDS011;53294;47.912;13.526;2023-05-08T07:04:13;23.27;;;16.45;;
66478;SDS011;53294;47.912;13.526;2023-05-08T07:06:40;25.42;;;17.77;;
66478;SDS011;53294;47.912;13.526;2023-05-08T07:09:06;25.10;;;16.95;;
66478;SDS011;53294;47.912;13.526;2023-05-08T07:11:33;26.48;;;16.83;;
66478;SDS011;53294;47.912;13.526;2023-05-08T07:14:00;24.70;;;17.88;;
66478;SDS011;53294;47.912;13.526;2023-05-08T07:16:26;25.83;;;17.63;;
66478;SDS011;53294;47.912;13.526;2023-05-08T07:18:53;23.80;;;16.77;;
66478;SDS011;53294;47.912;13.526;2023-05-08T07:21:20;26.40;;;16.95;;
66478;SDS011;53294;47.912;13.526;2023-05-08T07:23:46;25.08;;;16.52;;
66478;SDS011;53294;47.912;13.526;2023-05-08T07:26:16;23.73;;;17.48;;
66478;SDS011;53294;47.912;13.526;2023-05-08T07:28:43;28.58;;;16.25;;
66478;SDS011;53294;47.912;13.526;2023-05-08T07:31:10;25.98;;;17.00;;
66478;SDS011;53294;47.912;13.526;2023-05-08T07:33:37;25.25;;;16.52;;
66478;SDS011;53294;47.912;13.526;2023-05-08T07:36:04;24.60;;;17.60;;
66478;SDS011;53294;47.912;13.526;2023-05-08T07:38:31;27.35;;;17.95;;
66478;SDS011;53294;47.912;13.526;2023-05-08T07:40:57;24.60;;;16.85;;
66478;SDS011;53294;47.912;13.526;2023-05-08T07:43:26;25.40;;;16.45;;
66478;SDS011;53294;47.912;13.526;2023-05-08T07:45:53;24.15;;;16.58;;
66478;SDS011;53294;47.912;13.526;2023-05-08T07:48:20;25.35;;;17.75;;
66478;SDS011;53294;47.912;13.526;2023-05-08T07:50:48;23.95;;;17.05;;
66478;SDS011;53294;47.912;13.526;2023-05-08T07:53:15;24.23;;;16.52;;
66478;SDS011;53294;47.912;13.526;2023-05-08T07:55:42;27.35;;;18.08;;
66478;SDS011;53294;47.912;13.526;2023-05-08T07:58:09;25.85;;;17.75;;
66478;SDS011;53294;47.912;13.526;2023-05-08T08:00:35;27.80;;;19.00;;
66478;SDS011;53294;47.912;13.526;2023-05-08T08:03:03;24.63;;;16.77;;
66478;SDS011;53294;47.912;13.526;2023-05-08T08:05:29;25.77;;;16.33;;
66478;SDS011;53294;47.912;13.526;2023-05-08T08:07:56;25.45;;;17.13;;
66478;SDS011;53294;47.912;13.526;2023-05-08T08:10:23;30.38;;;19.23;;
66478;SDS011;53294;47.912;13.526;2023-05-08T08:12:49;24.35;;;17.38;;
66478;SDS011;53294;47.912;13.526;2023-05-08T08:15:16;26.58;;;18.05;;
66478;SDS011;53294;47.912;13.526;2023-05-08T08:17:43;25.65;;;18.77;;
66478;SDS011;53294;47.912;13.526;2023-05-08T08:20:10;26.35;;;17.23;;
66478;SDS011;53294;47.912;13.526;2023-05-08T08:22:37;20.95;;;15.95;;
66478;SDS011;53294;47.912;13.526;2023-05-08T08:25:04;28.70;;;19.25;;
66478;SDS011;53294;47.912;13.526;2023-05-08T08:27:31;26.80;;;18.05;;
66478;SDS011;53294;47.912;13.526;2023-05-08T08:29:58;22.73;;;16.73;;
66478;SDS011;53294;47.912;13.526;2023-05-08T08:32:42;25.90;;;18.38;;
66478;SDS011;53294;47.912;13.526;2023-05-08T08:35:09;25.92;;;18.00;;
66478;SDS011;53294;47.912;13.526;2023-05-08T08:37:36;24.13;;;16.25;;
66478;SDS011;53294;47.912;13.526;2023-05-08T08:40:03;24.27;;;16.33;;
66478;SDS011;53294;47.912;13.526;2023-05-08T08:42:30;24.92;;;17.73;;
66478;SDS011;53294;47.912;13.526;2023-05-08T08:44:57;24.52;;;16.50;;
66478;SDS011;53294;47.912;13.526;2023-05-08T08:47:26;26.15;;;18.30;;
66478;SDS011;53294;47.912;13.526;2023-05-08T08:49:54;24.23;;;17.00;;
66478;SDS011;53294;47.912;13.526;2023-05-08T08:55:05;23.98;;;16.52;;
66478;SDS011;53294;47.912;13.526;2023-05-08T08:57:35;23.77;;;16.67;;
66478;SDS011;53294;47.912;13.526;2023-05-08T09:00:08;24.10;;;16.48;;
66478;SDS011;53294;47.912;13.526;2023-05-08T09:02:37;21.92;;;15.68;;
66478;SDS011;53294;47.912;13.526;2023-05-08T09:05:04;26.88;;;17.83;;
66478;SDS011;53294;47.912;13.526;2023-05-08T09:07:32;21.00;;;15.68;;
66478;SDS011;53294;47.912;13.526;2023-05-08T09:09:59;22.48;;;14.75;;
66478;SDS011;53294;47.912;13.526;2023-05-08T09:12:26;25.08;;;16.83;;
66478;SDS011;53294;47.912;13.526;2023-05-08T09:14:52;27.40;;;18.52;;
66478;SDS011;53294;47.912;13.526;2023-05-08T09:17:19;22.42;;;15.32;;
66478;SDS011;53294;47.912;13.526;2023-05-08T09:19:47;22.08;;;15.75;;
66478;SDS011;53294;47.912;13.526;2023-05-08T09:22:15;22.70;;;14.68;;
66478;SDS011;53294;47.912;13.526;2023-05-08T09:24:58;21.60;;;14.75;;
66478;SDS011;53294;47.912;13.526;2023-05-08T09:30:06;21.75;;;15.23;;
66478;SDS011;53294;47.912;13.526;2023-05-08T09:32:38;21.13;;;14.68;;
66478;SDS011;53294;47.912;13.526;2023-05-08T09:35:07;21.80;;;15.02;;
66478;SDS011;53294;47.912;13.526;2023-05-08T09:37:39;26.05;;;15.85;;
66478;SDS011;53294;47.912;13.526;2023-05-08T09:40:11;23.05;;;16.20;;
66478;SDS011;53294;47.912;13.526;2023-05-08T09:42:39;22.67;;;15.80;;
66478;SDS011;53294;47.912;13.526;2023-05-08T09:45:06;21.10;;;14.35;;
66478;SDS011;53294;47.912;13.526;2023-05-08T09:47:34;21.08;;;15.65;;
66478;SDS011;53294;47.912;13.526;2023-05-08T09:50:05;20.42;;;14.43;;
66478;SDS011;53294;47.912;13.526;2023-05-08T09:52:33;19.38;;;13.95;;
66478;SDS011;53294;47.912;13.526;2023-05-08T09:57:31;21.20;;;15.23;;
66478;SDS011;53294;47.912;13.526;2023-05-08T10:02:36;21.13;;;15.23;;
66478;SDS011;53294;47.912;13.526;2023-05-08T10:05:20;19.42;;;15.25;;
66478;SDS011;53294;47.912;13.526;2023-05-08T10:07:57;21.38;;;15.25;;
66478;SDS011;53294;47.912;13.526;2023-05-08T10:10:25;22.17;;;15.95;;
66478;SDS011;53294;47.912;13.526;2023-05-08T10:12:54;20.38;;;14.55;;
66478;SDS011;53294;47.912;13.526;2023-05-08T10:15:22;16.70;;;12.07;;
66478;SDS011;53294;47.912;13.526;2023-05-08T10:17:58;22.58;;;16.73;;
66478;SDS011;53294;47.912;13.526;2023-05-08T10:20:29;20.60;;;15.30;;
66478;SDS011;53294;47.912;13.526;2023-05-08T10:22:56;18.98;;;13.20;;
66478;SDS011;53294;47.912;13.526;2023-05-08T10:25:24;21.17;;;14.43;;
66478;SDS011;53294;47.912;13.526;2023-05-08T10:27:53;19.33;;;13.82;;
66478;SDS011;53294;47.912;13.526;2023-05-08T10:30:24;19.17;;;14.77;;
66478;SDS011;53294;47.912;13.526;2023-05-08T10:32:52;20.40;;;13.73;;
66478;SDS011;53294;47.912;13.526;2023-05-08T10:35:23;18.98;;;13.63;;
66478;SDS011;53294;47.912;13.526;2023-05-08T10:37:51;18.95;;;14.15;;
66478;SDS011;53294;47.912;13.526;2023-05-08T10:40:20;21.13;;;16.00;;
66478;SDS011;53294;47.912;13.526;2023-05-08T10:42:47;19.67;;;14.57;;
66478;SDS011;53294;47.912;13.526;2023-05-08T10:45:15;16.98;;;12.40;;
66478;SDS011;53294;47.912;13.526;2023-05-08T10:55:49;20.87;;;14.23;;
66478;SDS011;53294;47.912;13.526;2023-05-08T11:03:23;19.05;;;14.23;;
66478;SDS011;53294;47.912;13.526;2023-05-08T11:05:58;19.55;;;14.80;;
66478;SDS011;53294;47.912;13.526;2023-05-08T11:08:27;17.13;;;13.07;;
66478;SDS011;53294;47.912;13.526;2023-05-08T11:13:27;18.30;;;13.95;;
66478;SDS011;53294;47.912;13.526;2023-05-08T11:15:59;17.42;;;11.98;;
66478;SDS011;53294;47.912;13.526;2023-05-08T11:18:26;17.00;;;12.15;;
66478;SDS011;53294;47.912;13.526;2023-05-08T11:21:14;17.95;;;13.35;;
66478;SDS011;53294;47.912;13.526;2023-05-08T11:23:57;18.02;;;13.57;;
66478;SDS011;53294;47.912;13.526;2023-05-08T11:26:39;18.95;;;13.73;;
66478;SDS011;53294;47.912;13.526;2023-05-08T11:29:15;17.83;;;13.10;;
66478;SDS011;53294;47.912;13.526;2023-05-08T11:31:49;15.55;;;12.60;;
66478;SDS011;53294;47.912;13.526;2023-05-08T11:37:09;16.40;;;12.80;;
66478;SDS011;53294;47.912;13.526;2023-05-08T11:39:42;19.73;;;14.38;;
66478;SDS011;53294;47.912;13.526;2023-05-08T11:45:07;17.50;;;12.85;;
66478;SDS011;53294;47.912;13.526;2023-05-08T11:47:36;17.13;;;13.73;;
66478;SDS011;53294;47.912;13.526;2023-05-08T11:50:04;18.20;;;13.88;;
66478;SDS011;53294;47.912;13.526;2023-05-08T11:52:32;18.48;;;13.02;;
66478;SDS011;53294;47.912;13.526;2023-05-08T11:55:04;15.60;;;12.25;;
66478;SDS011;53294;47.912;13.526;2023-05-08T11:57:32;19.27;;;14.20;;
66478;SDS011;53294;47.912;13.526;2023-05-08T12:02:33;17.40;;;13.05;;
66478;SDS011;53294;47.912;13.526;2023-05-08T12:05:01;17.13;;;13.00;;
66478;SDS011;53294;47.912;13.526;2023-05-08T12:07:28;20.17;;;15.18;;
66478;SDS011;53294;47.912;13.526;2023-05-08T12:09:56;16.10;;;12.48;;
66478;SDS011;53294;47.912;13.526;2023-05-08T12:12:32;16.13;;;12.82;;
66478;SDS011;53294;47.912;13.526;2023-05-08T12:15:04;15.88;;;13.00;;
66478;SDS011;53294;47.912;13.526;2023-05-08T12:17:32;16.05;;;12.40;;
66478;SDS011;53294;47.912;13.526;2023-05-08T12:20:08;16.23;;;12.77;;
66478;SDS011;53294;47.912;13.526;2023-05-08T12:22:49;18.27;;;12.88;;
66478;SDS011;53294;47.912;13.526;2023-05-08T12:25:17;18.60;;;13.32;;
66478;SDS011;53294;47.912;13.526;2023-05-08T12:27:44;16.15;;;12.63;;
66478;SDS011;53294;47.912;13.526;2023-05-08T12:30:12;18.90;;;14.27;;
66478;SDS011;53294;47.912;13.526;2023-05-08T12:32:40;17.58;;;12.98;;
66478;SDS011;53294;47.912;13.526;2023-05-08T12:35:09;15.85;;;12.43;;
66478;SDS011;53294;47.912;13.526;2023-05-08T12:37:37;18.25;;;13.07;;
66478;SDS011;53294;47.912;13.526;2023-05-08T12:40:05;17.75;;;14.05;;
66478;SDS011;53294;47.912;13.526;2023-05-08T12:42:45;16.55;;;13.35;;
66478;SDS011;53294;47.912;13.526;2023-05-08T12:45:21;17.63;;;13.68;;
66478;SDS011;53294;47.912;13.526;2023-05-08T12:47:53;17.30;;;13.00;;
66478;SDS011;53294;47.912;13.526;2023-05-08T12:50:23;17.17;;;12.77;;
66478;SDS011;53294;47.912;13.526;2023-05-08T12:52:51;17.77;;;13.73;;
66478;SDS011;53294;47.912;13.526;2023-05-08T12:55:22;16.45;;;13.02;;
66478;SDS011;53294;47.912;13.526;2023-05-08T12:58:03;17.77;;;12.65;;
66478;SDS011;53294;47.912;13.526;2023-05-08T13:03:03;15.23;;;12.63;;
66478;SDS011;53294;47.912;13.526;2023-05-08T13:05:30;17.63;;;13.40;;
66478;SDS011;53294;47.912;13.526;2023-05-08T13:08:00;15.98;;;12.88;;
66478;SDS011;53294;47.912;13.526;2023-05-08T13:10:50;15.50;;;11.23;;
66478;SDS011;53294;47.912;13.526;2023-05-08T13:13:19;13.30;;;11.05;;
66478;SDS011;53294;47.912;13.526;2023-05-08T13:15:48;14.90;;;11.70;;
66478;SDS011;53294;47.912;13.526;2023-05-08T13:18:16;16.75;;;12.82;;
66478;SDS011;53294;47.912;13.526;2023-05-08T13:20:43;16.20;;;13.27;;
66478;SDS011;53294;47.912;13.526;2023-05-08T13:23:11;15.32;;;12.40;;
66478;SDS011;53294;47.912;13.526;2023-05-08T13:25:38;17.60;;;12.73;;
66478;SDS011;53294;47.912;13.526;2023-05-08T13:28:06;17.90;;;14.75;;
66478;SDS011;53294;47.912;13.526;2023-05-08T13:30:34;13.20;;;10.73;;
66478;SDS011;53294;47.912;13.526;2023-05-08T13:33:02;16.63;;;13.00;;
66478;SDS011;53294;47.912;13.526;2023-05-08T13:35:30;16.25;;;13.18;;
66478;SDS011;53294;47.912;13.526;2023-05-08T13:37:57;15.73;;;11.85;;
66478;SDS011;53294;47.912;13.526;2023-05-08T13:40:24;16.58;;;12.70;;
66478;SDS011;53294;47.912;13.526;2023-05-08T13:42:51;13.55;;;11.45;;
66478;SDS011;53294;47.912;13.526;2023-05-08T13:45:18;16.38;;;12.95;;
66478;SDS011;53294;47.912;13.526;2023-05-08T13:47:45;14.98;;;11.88;;
66478;SDS011;53294;47.912;13.526;2023-05-08T13:50:14;15.40;;;12.75;;
66478;SDS011;53294;47.912;13.526;2023-05-08T13:52:41;16.83;;;13.25;;
66478;SDS011;53294;47.912;13.526;2023-05-08T13:55:09;15.23;;;10.52;;
66478;SDS011;53294;47.912;13.526;2023-05-08T13:57:37;14.40;;;11.73;;
66478;SDS011;53294;47.912;13.526;2023-05-08T14:00:05;14.35;;;11.43;;
66478;SDS011;53294;47.912;13.526;2023-05-08T14:02:34;15.93;;;13.20;;
66478;SDS011;53294;47.912;13.526;2023-05-08T14:05:01;16.20;;;13.18;;
66478;SDS011;53294;47.912;13.526;2023-05-08T14:07:29;17.48;;;14.00;;
66478;SDS011;53294;47.912;13.526;2023-05-08T14:09:55;14.10;;;10.77;;
66478;SDS011;53294;47.912;13.526;2023-05-08T14:12:22;15.65;;;12.68;;
66478;SDS011;53294;47.912;13.526;2023-05-08T14:14:49;12.88;;;10.38;;
66478;SDS011;53294;47.912;13.526;2023-05-08T14:17:15;13.80;;;11.00;;
66478;SDS011;53294;47.912;13.526;2023-05-08T14:19:42;15.80;;;11.93;;
66478;SDS011;53294;47.912;13.526;2023-05-08T14:22:09;15.52;;;12.80;;
66478;SDS011;53294;47.912;13.526;2023-05-08T14:24:35;14.73;;;11.48;;
66478;SDS011;53294;47.912;13.526;2023-05-08T14:27:02;13.77;;;10.82;;
66478;SDS011;53294;47.912;13.526;2023-05-08T14:29:31;14.23;;;10.43;;
66478;SDS011;53294;47.912;13.526;2023-05-08T14:31:59;16.55;;;10.75;;
66478;SDS011;53294;47.912;13.526;2023-05-08T14:34:26;15.30;;;10.07;;
66478;SDS011;53294;47.912;13.526;2023-05-08T14:36:53;11.18;;;8.80;;
66478;SDS011;53294;47.912;13.526;2023-05-08T14:39:20;12.25;;;10.02;;
66478;SDS011;53294;47.912;13.526;2023-05-08T14:41:47;11.75;;;9.48;;
66478;SDS011;53294;47.912;13.526;2023-05-08T14:44:33;13.05;;;10.00;;
66478;SDS011;53294;47.912;13.526;2023-05-08T14:47:00;14.63;;;11.13;;
66478;SDS011;53294;47.912;13.526;2023-05-08T14:49:27;13.15;;;9.55;;
66478;SDS011;53294;47.912;13.526;2023-05-08T14:52:03;12.75;;;10.23;;
66478;SDS011;53294;47.912;13.526;2023-05-08T14:54:31;13.75;;;9.02;;
66478;SDS011;53294;47.912;13.526;2023-05-08T14:56:58;12.38;;;9.18;;
66478;SDS011;53294;47.912;13.526;2023-05-08T14:59:25;12.52;;;9.63;;
66478;SDS011;53294;47.912;13.526;2023-05-08T15:01:51;11.57;;;9.55;;
66478;SDS011;53294;47.912;13.526;2023-05-08T15:04:18;12.07;;;9.60;;
66478;SDS011;53294;47.912;13.526;2023-05-08T15:06:45;10.43;;;7.65;;
66478;SDS011;53294;47.912;13.526;2023-05-08T15:09:12;11.88;;;8.40;;
66478;SDS011;53294;47.912;13.526;2023-05-08T15:11:39;9.93;;;8.00;;
66478;SDS011;53294;47.912;13.526;2023-05-08T15:14:05;9.98;;;7.40;;
66478;SDS011;53294;47.912;13.526;2023-05-08T15:16:32;8.23;;;6.63;;
66478;SDS011;53294;47.912;13.526;2023-05-08T15:18:59;7.82;;;6.00;;
66478;SDS011;53294;47.912;13.526;2023-05-08T15:21:25;7.97;;;6.35;;
66478;SDS011;53294;47.912;13.526;2023-05-08T15:23:55;8.52;;;6.03;;